createdAt,value
2022-08-27T00:02:20.405Z,90.02
2022-08-27T00:04:49.780Z,90.24
2022-08-27T00:07:18.033Z,90.42
2022-08-27T00:09:46.295Z,90.67
2022-08-27T00:12:14.540Z,91.12
2022-08-27T00:14:43.934Z,90.84
2022-08-27T00:17:12.228Z,89.80
2022-08-27T00:19:40.935Z,91.38
2022-08-27T00:22:10.433Z,92.60
2022-08-27T00:24:44.641Z,91.09
2022-08-27T00:27:17.437Z,90.35
2022-08-27T00:29:49.342Z,89.92
2022-08-27T00:32:18.206Z,89.39
2022-08-27T00:34:46.694Z,89.77
2022-08-27T00:37:14.645Z,90.92
2022-08-27T00:39:42.677Z,90.74
2022-08-27T00:42:10.629Z,89.87
2022-08-27T00:44:38.860Z,89.46
2022-08-27T00:47:12.047Z,90.62
2022-08-27T00:49:43.002Z,91.53
2022-08-27T00:52:17.787Z,90.81
2022-08-27T00:54:46.481Z,89.61
2022-08-27T00:57:16.214Z,89.40
2022-08-27T00:59:44.876Z,89.22
2022-08-27T01:02:20.609Z,88.49
2022-08-27T01:04:52.084Z,88.85
2022-08-27T01:07:20.517Z,88.73
2022-08-27T01:09:50.186Z,88.98
2022-08-27T01:12:21.014Z,88.40
2022-08-27T01:14:48.988Z,88.15
2022-08-27T01:17:18.826Z,87.66
2022-08-27T01:19:51.185Z,88.17
2022-08-27T01:22:29.753Z,88.11
2022-08-27T01:25:02.693Z,88.05
2022-08-27T01:27:32.436Z,88.35
2022-08-27T01:30:00.942Z,88.27
2022-08-27T01:32:31.520Z,88.16
2022-08-27T01:35:00.419Z,88.64
2022-08-27T01:37:28.969Z,88.24
2022-08-27T01:39:59.452Z,88.00
2022-08-27T01:42:31.587Z,87.52
2022-08-27T01:45:04.718Z,88.67
2022-08-27T01:47:34.788Z,88.91
2022-08-27T01:50:03.586Z,88.26
2022-08-27T01:52:32.193Z,88.17
2022-08-27T01:55:01.523Z,87.70
2022-08-27T01:57:29.722Z,88.22
2022-08-27T01:59:58.135Z,87.61
2022-08-27T02:02:26.606Z,87.00
2022-08-27T02:04:54.881Z,87.28
2022-08-27T02:07:23.035Z,86.92
2022-08-27T02:09:51.208Z,87.18
2022-08-27T02:12:20.504Z,86.98
2022-08-27T02:14:49.428Z,87.51
2022-08-27T02:17:17.570Z,87.40
2022-08-27T02:19:45.662Z,87.11
2022-08-27T02:22:17.044Z,87.78
2022-08-27T02:24:44.926Z,89.08
2022-08-27T02:27:13.168Z,90.17
2022-08-27T02:29:44.712Z,90.74
2022-08-27T02:32:23.904Z,90.66
2022-08-27T02:35:00.235Z,90.24
2022-08-27T02:37:30.644Z,88.80
2022-08-27T02:39:59.599Z,90.14
2022-08-27T02:42:27.519Z,89.83
2022-08-27T02:44:56.784Z,88.46
2022-08-27T02:47:24.648Z,88.10
2022-08-27T02:49:52.561Z,87.08
2022-08-27T02:52:24.851Z,87.13
2022-08-27T02:54:54.109Z,87.87
2022-08-27T02:57:22.377Z,89.30
2022-08-27T02:59:53.431Z,89.68
2022-08-27T03:02:22.946Z,90.61
2022-08-27T03:04:54.207Z,91.82
2022-08-27T03:07:24.383Z,91.09
2022-08-27T03:09:52.376Z,89.71
2022-08-27T03:12:20.414Z,89.36
2022-08-27T03:14:51.015Z,89.60
2022-08-27T03:17:36.392Z,91.12
2022-08-27T03:20:12.149Z,90.65
2022-08-27T03:22:42.126Z,90.69
2022-08-27T03:25:10.821Z,92.52
2022-08-27T03:27:39.183Z,91.34
2022-08-27T03:30:09.828Z,90.62
2022-08-27T03:32:38.369Z,90.61
2022-08-27T03:35:09.022Z,88.92
2022-08-27T03:37:39.381Z,89.59
2022-08-27T03:40:09.165Z,88.90
2022-08-27T03:42:38.514Z,88.36
2022-08-27T03:45:08.077Z,86.79
2022-08-27T03:47:36.722Z,85.72
2022-08-27T03:50:05.966Z,86.46
2022-08-27T03:52:36.603Z,86.65
2022-08-27T03:55:08.889Z,86.41
2022-08-27T03:57:37.774Z,87.28
2022-08-27T04:00:07.788Z,87.11
2022-08-27T04:02:40.649Z,86.71
2022-08-27T04:05:11.165Z,87.62
2022-08-27T04:07:41.214Z,88.21
2022-08-27T04:10:11.302Z,89.29
2022-08-27T04:12:39.648Z,90.03
2022-08-27T04:15:09.278Z,88.08
2022-08-27T04:17:37.349Z,87.57
2022-08-27T04:20:31.694Z,89.09
2022-08-27T04:22:56.635Z,89.11
2022-08-27T04:25:24.590Z,90.46
2022-08-27T04:27:53.486Z,91.65
2022-08-27T04:30:21.314Z,90.08
2022-08-27T04:32:49.239Z,89.49
2022-08-27T04:35:17.998Z,88.99
2022-08-27T04:37:45.943Z,89.84
2022-08-27T04:40:15.327Z,88.82
2022-08-27T04:42:44.375Z,89.60
2022-08-27T04:45:12.807Z,89.46
2022-08-27T04:47:40.740Z,92.87
2022-08-27T04:50:09.259Z,91.45
2022-08-27T04:52:40.377Z,90.85
2022-08-27T04:55:10.333Z,90.03
2022-08-27T04:57:39.598Z,91.86
2022-08-27T05:00:08.871Z,90.87
2022-08-27T05:02:36.699Z,92.19
2022-08-27T05:05:04.848Z,90.98
2022-08-27T05:07:32.875Z,90.90
2022-08-27T05:10:00.830Z,89.22
2022-08-27T05:12:28.826Z,90.07
2022-08-27T05:14:58.199Z,88.94
2022-08-27T05:17:26.218Z,88.69
2022-08-27T05:19:56.614Z,89.26
2022-08-27T05:22:25.220Z,89.73
2022-08-27T05:24:53.059Z,89.20
2022-08-27T05:27:24.112Z,88.73
2022-08-27T05:29:52.071Z,89.50
2022-08-27T05:32:21.320Z,89.21
2022-08-27T05:34:53.012Z,87.97
2022-08-27T05:37:20.908Z,87.56
2022-08-27T05:39:48.785Z,87.26
2022-08-27T05:42:19.829Z,87.40
2022-08-27T05:44:47.770Z,87.37
2022-08-27T05:47:15.900Z,86.92
2022-08-27T05:49:45.687Z,86.85
2022-08-27T05:52:13.579Z,87.41
2022-08-27T05:54:41.535Z,89.18
2022-08-27T05:57:09.531Z,89.69
2022-08-27T05:59:55.136Z,89.36
2022-08-27T06:02:23.487Z,89.54
2022-08-27T06:04:53.448Z,88.75
2022-08-27T06:07:23.791Z,87.83
2022-08-27T06:09:51.730Z,87.12
2022-08-27T06:12:19.723Z,89.64
2022-08-27T06:14:56.201Z,89.46
2022-08-27T06:17:24.456Z,89.57
2022-08-27T06:19:53.965Z,91.41
2022-08-27T06:22:22.037Z,89.91
2022-08-27T06:24:50.232Z,88.45
2022-08-27T06:27:21.660Z,88.67
2022-08-27T06:29:49.740Z,87.29
2022-08-27T06:32:17.814Z,87.77
2022-08-27T06:34:45.694Z,88.20
2022-08-27T06:37:15.119Z,88.22
2022-08-27T06:39:43.133Z,88.74
2022-08-27T06:42:13.468Z,88.19
2022-08-27T06:44:42.251Z,88.32
2022-08-27T06:47:10.438Z,91.68
2022-08-27T06:49:40.225Z,89.53
2022-08-27T06:52:08.179Z,89.54
2022-08-27T06:54:40.218Z,88.03
2022-08-27T06:57:08.167Z,90.02
2022-08-27T06:59:36.135Z,88.92
2022-08-27T07:02:06.803Z,88.70
2022-08-27T07:04:35.028Z,89.38
2022-08-27T07:07:03.696Z,88.71
2022-08-27T07:09:33.042Z,87.51
2022-08-27T07:12:02.867Z,88.58
2022-08-27T07:14:37.157Z,88.93
2022-08-27T07:17:10.744Z,89.95
2022-08-27T07:19:41.201Z,89.92
2022-08-27T07:22:10.451Z,90.26
2022-08-27T07:24:42.056Z,90.45
2022-08-27T07:27:14.920Z,92.77
2022-08-27T07:29:43.092Z,90.15
2022-08-27T07:32:11.216Z,89.59
2022-08-27T07:34:39.209Z,90.39
2022-08-27T07:37:07.502Z,88.39
2022-08-27T07:39:35.347Z,88.87
2022-08-27T07:42:20.585Z,90.48
2022-08-27T07:44:50.031Z,90.69
2022-08-27T07:47:18.582Z,88.89
2022-08-27T07:49:46.769Z,92.32
2022-08-27T07:52:17.182Z,90.05
2022-08-27T07:54:45.406Z,89.68
2022-08-27T07:57:15.100Z,89.57
2022-08-27T07:59:43.215Z,91.74
2022-08-27T08:02:15.315Z,93.05
2022-08-27T08:04:43.278Z,91.35
2022-08-27T08:07:11.327Z,94.83
2022-08-27T08:09:39.716Z,94.81
2022-08-27T08:12:08.282Z,98.24
2022-08-27T08:14:37.407Z,98.97
2022-08-27T08:17:10.333Z,98.45
2022-08-27T08:19:40.586Z,96.65
2022-08-27T08:22:09.080Z,98.74
2022-08-27T08:24:37.194Z,97.89
2022-08-27T08:27:07.669Z,99.93
2022-08-27T08:29:37.658Z,100.00
2022-08-27T08:32:06.254Z,100.00
2022-08-27T08:34:35.772Z,96.23
2022-08-27T08:37:06.788Z,94.13
2022-08-27T08:39:35.874Z,97.17
2022-08-27T08:42:05.851Z,97.68
2022-08-27T08:44:37.701Z,96.03
2022-08-27T08:47:10.615Z,99.02
2022-08-27T08:49:50.825Z,100.00
2022-08-27T08:52:40.191Z,100.00
2022-08-27T08:55:23.305Z,100.00
2022-08-27T08:58:02.258Z,100.00
2022-08-27T09:00:33.898Z,100.00
2022-08-27T09:03:01.907Z,100.00
2022-08-27T09:05:31.020Z,100.00
2022-08-27T09:08:33.049Z,100.00
2022-08-27T09:11:07.748Z,100.00
2022-08-27T09:13:41.507Z,98.60
2022-08-27T09:16:10.117Z,97.54
2022-08-27T09:18:40.999Z,99.53
2022-08-27T09:21:27.481Z,97.76
2022-08-27T09:24:08.203Z,99.20
2022-08-27T09:26:40.742Z,99.17
2022-08-27T09:29:16.994Z,99.04
2022-08-27T09:31:48.085Z,98.59
2022-08-27T09:34:17.468Z,100.00
2022-08-27T09:37:03.319Z,100.00
2022-08-27T09:39:42.024Z,99.28
2022-08-27T09:42:10.813Z,97.00
2022-08-27T09:44:52.915Z,95.50
2022-08-27T09:47:21.969Z,99.06
2022-08-27T09:49:51.821Z,98.98
2022-08-27T09:52:33.065Z,96.68
2022-08-27T09:55:08.411Z,96.21
2022-08-27T09:57:41.908Z,96.88
2022-08-27T10:00:17.417Z,96.26
2022-08-27T10:02:53.625Z,94.50
2022-08-27T10:05:29.226Z,94.28
2022-08-27T10:08:03.911Z,95.00
2022-08-27T10:10:45.289Z,94.21
2022-08-27T10:13:21.278Z,95.75
2022-08-27T10:16:03.643Z,95.71
2022-08-27T10:18:42.876Z,95.65
2022-08-27T10:21:17.026Z,94.66
2022-08-27T10:23:53.418Z,94.20
2022-08-27T10:26:31.864Z,94.65
2022-08-27T10:29:14.499Z,94.97
2022-08-27T10:31:52.647Z,95.55
2022-08-27T10:34:32.001Z,95.18
2022-08-27T10:37:11.722Z,93.07
2022-08-27T10:40:03.097Z,92.12
2022-08-27T10:42:40.410Z,93.12
2022-08-27T10:45:30.639Z,92.56
2022-08-27T10:48:12.278Z,97.46
2022-08-27T10:50:47.847Z,97.24
2022-08-27T10:53:27.064Z,93.90
2022-08-27T10:56:07.560Z,95.13
2022-08-27T10:58:52.241Z,95.45
2022-08-27T11:01:28.580Z,95.64
2022-08-27T11:04:02.859Z,93.15
2022-08-27T11:06:36.127Z,92.43
2022-08-27T11:09:11.566Z,91.41
2022-08-27T11:14:37.569Z,90.31
2022-08-27T11:17:10.475Z,91.15
2022-08-27T11:20:00.330Z,93.78
2022-08-27T11:22:34.658Z,93.46
2022-08-27T11:25:16.485Z,92.76
2022-08-27T11:27:46.298Z,91.18
2022-08-27T11:30:25.442Z,92.29
2022-08-27T11:33:05.806Z,91.81
2022-08-27T11:35:50.891Z,90.98
2022-08-27T11:38:45.745Z,89.93
2022-08-27T11:41:45.513Z,90.02
2022-08-27T11:44:15.457Z,89.69
2022-08-27T11:46:48.667Z,87.82
2022-08-27T11:49:28.705Z,85.73
2022-08-27T11:52:00.298Z,84.99
2022-08-27T11:54:31.527Z,86.85
2022-08-27T11:57:00.219Z,87.24
2022-08-27T11:59:33.669Z,88.07
2022-08-27T12:02:27.148Z,88.13
2022-08-27T12:05:07.506Z,88.96
2022-08-27T12:07:37.528Z,90.11
2022-08-27T12:10:21.260Z,88.30
2022-08-27T12:13:02.631Z,88.52
2022-08-27T12:15:51.718Z,88.77
2022-08-27T12:18:41.723Z,85.19
2022-08-27T12:21:20.592Z,86.97
2022-08-27T12:24:08.319Z,87.22
2022-08-27T12:26:39.967Z,87.08
2022-08-27T12:29:39.356Z,85.95
2022-08-27T12:32:26.403Z,86.36
2022-08-27T12:35:05.719Z,87.49
2022-08-27T12:37:37.683Z,84.69
2022-08-27T12:40:14.569Z,85.19
2022-08-27T12:42:42.864Z,87.38
2022-08-27T12:45:20.322Z,85.61
2022-08-27T12:47:50.842Z,85.64
2022-08-27T12:50:27.745Z,86.23
2022-08-27T12:53:26.902Z,87.40
2022-08-27T12:56:22.815Z,86.99
2022-08-27T12:58:59.563Z,84.55
2022-08-27T13:01:43.561Z,83.37
2022-08-27T13:04:22.097Z,82.30
2022-08-27T13:06:51.795Z,83.94
2022-08-27T13:09:28.779Z,83.23
2022-08-27T13:11:57.738Z,83.54
2022-08-27T13:14:27.882Z,83.85
2022-08-27T13:17:04.550Z,82.80
2022-08-27T13:19:37.858Z,79.77
2022-08-27T13:22:07.754Z,80.44
2022-08-27T13:24:38.497Z,80.60
2022-08-27T13:27:07.535Z,80.45
2022-08-27T13:29:35.950Z,80.30
2022-08-27T13:32:05.684Z,78.84
2022-08-27T13:34:37.096Z,80.68
2022-08-27T13:37:09.310Z,79.97
2022-08-27T13:39:39.114Z,81.17
2022-08-27T13:42:10.395Z,81.80
2022-08-27T13:44:41.655Z,83.90
2022-08-27T13:47:20.165Z,81.91
2022-08-27T13:49:50.908Z,84.09
2022-08-27T13:52:28.519Z,83.97
2022-08-27T13:55:05.787Z,84.36
2022-08-27T13:57:44.041Z,83.39
2022-08-27T14:00:18.263Z,83.42
2022-08-27T14:02:55.971Z,84.25
2022-08-27T14:05:31.867Z,83.58
2022-08-27T14:08:12.996Z,82.88
2022-08-27T14:10:45.271Z,81.21
2022-08-27T14:13:22.900Z,80.22
2022-08-27T14:15:53.072Z,84.07
2022-08-27T14:18:42.139Z,82.86
2022-08-27T14:21:16.930Z,82.07
2022-08-27T14:23:46.249Z,82.66
2022-08-27T14:26:14.977Z,79.65
2022-08-27T14:28:43.740Z,79.04
2022-08-27T14:31:12.969Z,79.41
2022-08-27T14:33:41.664Z,81.29
2022-08-27T14:36:11.535Z,79.54
2022-08-27T14:38:43.253Z,81.18
2022-08-27T14:41:14.231Z,81.95
2022-08-27T14:43:42.917Z,81.92
2022-08-27T14:46:23.472Z,79.40
2022-08-27T14:48:57.774Z,77.79
2022-08-27T14:51:27.908Z,77.87
2022-08-27T14:53:57.537Z,80.39
2022-08-27T14:56:27.573Z,77.73
2022-08-27T14:58:55.611Z,77.73
2022-08-27T15:01:25.969Z,80.41
2022-08-27T15:03:55.470Z,84.50
2022-08-27T15:06:25.130Z,78.36
2022-08-27T15:08:55.043Z,78.59
2022-08-27T15:11:27.503Z,77.75
2022-08-27T15:13:57.347Z,75.01
2022-08-27T15:16:30.840Z,80.18
2022-08-27T15:19:01.237Z,80.05
2022-08-27T15:21:31.489Z,78.50
2022-08-27T15:24:02.171Z,76.98
2022-08-27T15:26:34.846Z,76.26
2022-08-27T15:29:06.370Z,75.71
2022-08-27T15:31:35.448Z,76.96
2022-08-27T15:34:06.702Z,74.12
2022-08-27T15:36:34.779Z,74.46
2022-08-27T15:39:03.272Z,77.38
2022-08-27T15:41:34.052Z,78.12
2022-08-27T15:44:04.417Z,77.29
2022-08-27T15:46:35.029Z,76.51
2022-08-27T15:49:03.416Z,77.97
2022-08-27T15:51:33.925Z,77.49
2022-08-27T15:54:06.708Z,77.88
2022-08-27T15:56:37.809Z,81.38
2022-08-27T15:59:09.932Z,78.81
2022-08-27T16:01:39.812Z,77.45
2022-08-27T16:04:09.435Z,77.99
2022-08-27T16:06:37.550Z,79.83
2022-08-27T16:09:06.510Z,79.00
2022-08-27T16:11:37.704Z,80.24
2022-08-27T16:14:10.650Z,79.59
2022-08-27T16:16:39.857Z,79.45
2022-08-27T16:19:11.653Z,78.59
2022-08-27T16:21:41.844Z,79.40
2022-08-27T16:24:10.959Z,82.43
2022-08-27T16:26:39.419Z,83.94
2022-08-27T16:29:09.706Z,87.04
2022-08-27T16:31:38.276Z,84.38
2022-08-27T16:34:15.073Z,83.72
2022-08-27T16:36:43.487Z,80.86
2022-08-27T16:39:11.678Z,83.31
2022-08-27T16:41:39.761Z,83.02
2022-08-27T16:44:09.162Z,84.04
2022-08-27T16:46:37.693Z,82.35
2022-08-27T16:49:23.141Z,82.12
2022-08-27T16:51:52.287Z,83.86
2022-08-27T16:54:22.761Z,85.44
2022-08-27T16:56:51.086Z,83.05
2022-08-27T16:59:20.784Z,81.50
2022-08-27T17:01:52.640Z,81.74
2022-08-27T17:04:30.280Z,81.25
2022-08-27T17:07:00.699Z,81.33
2022-08-27T17:09:28.722Z,81.39
2022-08-27T17:11:59.384Z,81.41
2022-08-27T17:14:29.160Z,82.47
2022-08-27T17:16:57.122Z,82.59
2022-08-27T17:19:26.112Z,83.31
2022-08-27T17:21:59.382Z,83.01
2022-08-27T17:24:27.330Z,83.27
2022-08-27T17:26:55.933Z,82.71
2022-08-27T17:29:23.906Z,83.24
2022-08-27T17:31:53.266Z,84.02
2022-08-27T17:34:25.191Z,83.96
2022-08-27T17:36:54.314Z,83.73
2022-08-27T17:39:22.796Z,83.05
2022-08-27T17:41:56.019Z,82.80
2022-08-27T17:44:27.516Z,82.65
2022-08-27T17:46:58.889Z,82.54
2022-08-27T17:49:31.301Z,82.47
2022-08-27T17:52:01.069Z,82.75
2022-08-27T17:54:33.831Z,82.83
2022-08-27T17:57:02.603Z,83.34
2022-08-27T17:59:31.021Z,83.39
2022-08-27T18:02:01.405Z,83.73
2022-08-27T18:04:29.350Z,83.43
2022-08-27T18:06:57.514Z,83.32
2022-08-27T18:09:25.513Z,84.76
2022-08-27T18:11:53.940Z,85.97
2022-08-27T18:14:27.139Z,86.83
2022-08-27T18:16:58.221Z,89.10
2022-08-27T18:19:28.329Z,87.22
2022-08-27T18:21:57.448Z,86.94
2022-08-27T18:24:27.576Z,89.72
2022-08-27T18:26:57.964Z,89.45
2022-08-27T18:29:25.959Z,88.06
2022-08-27T18:31:53.832Z,89.52
2022-08-27T18:34:22.207Z,89.81
2022-08-27T18:36:51.494Z,88.97
2022-08-27T18:39:19.996Z,87.67
2022-08-27T18:41:48.267Z,87.19
2022-08-27T18:44:17.683Z,86.67
2022-08-27T18:46:46.824Z,86.90
2022-08-27T18:49:15.217Z,86.79
2022-08-27T18:51:48.078Z,86.23
2022-08-27T18:54:20.804Z,85.97
2022-08-27T18:56:49.210Z,86.08
2022-08-27T18:59:17.123Z,85.67
2022-08-27T19:01:48.086Z,86.56
2022-08-27T19:04:16.499Z,87.13
2022-08-27T19:06:44.406Z,88.27
2022-08-27T19:09:12.567Z,89.89
2022-08-27T19:11:41.938Z,89.32
2022-08-27T19:14:09.937Z,89.32
2022-08-27T19:16:42.368Z,88.21
2022-08-27T19:19:11.794Z,87.70
2022-08-27T19:21:39.929Z,88.36
2022-08-27T19:24:09.097Z,87.69
2022-08-27T19:26:37.247Z,86.60
2022-08-27T19:29:07.869Z,86.34
2022-08-27T19:31:39.277Z,87.04
2022-08-27T19:34:08.512Z,87.86
2022-08-27T19:36:40.595Z,90.59
2022-08-27T19:39:11.122Z,92.93
2022-08-27T19:41:39.308Z,93.26
2022-08-27T19:44:08.954Z,96.85
2022-08-27T19:46:37.868Z,95.81
2022-08-27T19:49:05.753Z,93.33
2022-08-27T19:51:33.720Z,90.82
2022-08-27T19:54:01.665Z,90.32
2022-08-27T19:56:32.436Z,91.53
2022-08-27T19:59:14.545Z,91.20
2022-08-27T20:01:50.613Z,92.99
2022-08-27T20:04:18.492Z,95.06
2022-08-27T20:06:46.424Z,94.07
2022-08-27T20:09:16.144Z,91.73
2022-08-27T20:11:45.846Z,90.56
2022-08-27T20:14:14.502Z,90.52
2022-08-27T20:16:43.110Z,89.41
2022-08-27T20:19:12.836Z,88.57
2022-08-27T20:21:40.934Z,88.77
2022-08-27T20:24:09.115Z,90.71
2022-08-27T20:26:37.127Z,90.26
2022-08-27T20:29:05.127Z,89.11
2022-08-27T20:31:33.377Z,88.86
2022-08-27T20:34:01.505Z,88.88
2022-08-27T20:36:33.101Z,89.97
2022-08-27T20:39:01.450Z,89.78
2022-08-27T20:41:29.605Z,89.35
2022-08-27T20:43:57.583Z,90.98
2022-08-27T20:46:27.942Z,89.98
2022-08-27T20:48:59.088Z,88.68
2022-08-27T20:51:27.700Z,88.11
2022-08-27T20:53:56.971Z,87.72
2022-08-27T20:56:25.965Z,87.54
2022-08-27T20:59:16.769Z,87.91
2022-08-27T21:01:44.681Z,88.29
2022-08-27T21:04:12.698Z,88.64
2022-08-27T21:06:40.552Z,88.91
2022-08-27T21:09:09.784Z,88.93
2022-08-27T21:11:37.886Z,88.47
2022-08-27T21:14:05.802Z,89.02
2022-08-27T21:16:34.281Z,90.02
2022-08-27T21:19:02.207Z,89.51
2022-08-27T21:21:30.104Z,88.84
2022-08-27T21:23:58.135Z,89.48
2022-08-27T21:26:27.423Z,89.45
2022-08-27T21:28:56.141Z,89.27
2022-08-27T21:31:25.060Z,89.06
2022-08-27T21:33:53.039Z,88.88
2022-08-27T21:36:20.883Z,88.83
2022-08-27T21:38:48.860Z,89.26
2022-08-27T21:41:16.874Z,89.00
2022-08-27T21:43:46.149Z,88.93
2022-08-27T21:46:14.221Z,88.64
2022-08-27T21:48:44.549Z,88.67
2022-08-27T21:51:24.262Z,88.61
2022-08-27T21:53:54.955Z,88.41
2022-08-27T21:56:22.871Z,88.55
2022-08-27T21:58:52.210Z,89.63
2022-08-27T22:01:20.498Z,90.56
2022-08-27T22:03:50.904Z,90.36
2022-08-27T22:06:19.084Z,90.88
2022-08-27T22:08:46.940Z,91.88
2022-08-27T22:11:14.933Z,91.55
2022-08-27T22:13:43.461Z,91.79
2022-08-27T22:16:12.858Z,91.22
2022-08-27T22:18:40.886Z,90.49
2022-08-27T22:21:08.918Z,91.30
2022-08-27T22:23:36.904Z,90.82
2022-08-27T22:26:04.858Z,91.21
2022-08-27T22:28:32.930Z,90.02
2022-08-27T22:31:00.953Z,90.18
2022-08-27T22:33:30.392Z,89.93
2022-08-27T22:35:58.236Z,89.10
2022-08-27T22:38:26.124Z,90.43
2022-08-27T22:40:54.695Z,89.34
2022-08-27T22:43:22.637Z,89.11
2022-08-27T22:45:50.591Z,91.01
2022-08-27T22:48:18.756Z,89.22
2022-08-27T22:50:48.087Z,89.66
2022-08-27T22:53:16.053Z,89.79
2022-08-27T22:55:50.054Z,90.10
2022-08-27T22:58:18.955Z,90.04
2022-08-27T23:00:56.909Z,89.93
2022-08-27T23:03:24.908Z,89.78
2022-08-27T23:05:54.896Z,89.63
2022-08-27T23:08:23.372Z,89.58
2022-08-27T23:10:52.558Z,89.06
2022-08-27T23:13:21.717Z,90.62
2022-08-27T23:15:49.823Z,91.06
2022-08-27T23:18:17.675Z,91.20
2022-08-27T23:20:45.744Z,91.05
2022-08-27T23:23:15.087Z,92.49
2022-08-27T23:26:00.899Z,92.14
2022-08-27T23:28:31.084Z,94.68
2022-08-27T23:31:00.041Z,93.76
2022-08-27T23:33:27.920Z,92.43
2022-08-27T23:35:58.117Z,91.71
2022-08-27T23:38:27.471Z,91.49
2022-08-27T23:40:55.879Z,91.07
2022-08-27T23:43:26.067Z,90.86
2022-08-27T23:45:54.016Z,90.35
2022-08-27T23:48:24.690Z,91.90
2022-08-27T23:50:52.803Z,92.58
2022-08-27T23:53:20.748Z,92.94
2022-08-27T23:55:49.964Z,92.27
2022-08-27T23:58:17.901Z,91.30
